createdAt,value
2023-09-27T00:00:48.214Z,17.68
2023-09-27T00:03:14.851Z,17.64
2023-09-27T00:05:41.756Z,17.60
2023-09-27T00:08:09.262Z,17.62
2023-09-27T00:10:35.850Z,17.53
2023-09-27T00:13:02.512Z,17.61
2023-09-27T00:15:29.153Z,17.59
2023-09-27T00:17:55.858Z,17.58
2023-09-27T00:20:23.013Z,17.55
2023-09-27T00:22:49.721Z,17.43
2023-09-27T00:25:16.604Z,17.46
2023-09-27T00:27:43.358Z,17.52
2023-09-27T00:30:14.390Z,17.51
2023-09-27T00:32:42.102Z,17.49
2023-09-27T00:35:16.029Z,17.49
2023-09-27T00:37:42.626Z,17.46
2023-09-27T00:40:13.118Z,17.43
2023-09-27T00:42:39.964Z,17.41
2023-09-27T00:45:08.088Z,17.38
2023-09-27T00:47:36.657Z,17.38
2023-09-27T00:50:03.633Z,17.36
2023-09-27T00:54:58.675Z,17.22
2023-09-27T00:57:25.518Z,17.33
2023-09-27T00:59:52.698Z,17.27
2023-09-27T01:02:19.710Z,17.22
2023-09-27T01:04:46.470Z,17.19
2023-09-27T01:07:13.205Z,17.25
2023-09-27T01:09:39.817Z,17.24
2023-09-27T01:12:06.656Z,17.21
2023-09-27T01:14:33.625Z,17.21
2023-09-27T01:17:12.760Z,17.06
2023-09-27T01:19:42.207Z,17.20
2023-09-27T01:22:08.678Z,17.17
2023-09-27T01:24:38.714Z,17.15
2023-09-27T01:27:10.661Z,17.14
2023-09-27T01:29:37.210Z,17.13
2023-09-27T01:32:03.908Z,17.12
2023-09-27T01:34:30.628Z,17.13
2023-09-27T01:36:57.129Z,17.10
2023-09-27T01:39:25.407Z,17.05
2023-09-27T01:41:51.933Z,17.07
2023-09-27T01:44:19.742Z,17.06
2023-09-27T01:46:46.383Z,17.06
2023-09-27T01:49:12.972Z,17.02
2023-09-27T01:51:40.396Z,17.00
2023-09-27T01:54:06.943Z,16.97
2023-09-27T01:56:33.402Z,16.97
2023-09-27T01:58:59.924Z,16.95
2023-09-27T02:01:26.413Z,16.92
2023-09-27T02:03:53.065Z,16.91
2023-09-27T02:06:19.628Z,16.91
2023-09-27T02:08:46.115Z,16.92
2023-09-27T02:11:14.306Z,16.89
2023-09-27T02:13:40.800Z,16.87
2023-09-27T02:16:07.374Z,16.85
2023-09-27T02:18:33.835Z,16.86
2023-09-27T02:21:00.359Z,16.76
2023-09-27T02:23:28.131Z,16.81
2023-09-27T02:25:58.949Z,16.79
2023-09-27T02:28:25.573Z,16.79
2023-09-27T02:30:52.896Z,16.78
2023-09-27T02:33:19.543Z,16.74
2023-09-27T02:35:46.068Z,16.75
2023-09-27T02:38:12.943Z,16.72
2023-09-27T02:40:40.661Z,16.70
2023-09-27T02:43:08.371Z,16.71
2023-09-27T02:45:35.509Z,16.64
2023-09-27T02:48:02.553Z,16.65
2023-09-27T02:50:29.108Z,16.61
2023-09-27T02:52:55.675Z,16.60
2023-09-27T02:55:22.213Z,16.56
2023-09-27T02:57:54.312Z,16.30
2023-09-27T03:00:22.473Z,16.60
2023-09-27T03:02:49.413Z,16.51
2023-09-27T03:05:16.435Z,16.52
2023-09-27T03:07:45.935Z,16.50
2023-09-27T03:10:12.769Z,16.45
2023-09-27T03:12:43.216Z,16.50
2023-09-27T03:15:13.315Z,16.46
2023-09-27T03:17:41.547Z,16.42
2023-09-27T03:20:10.642Z,16.42
2023-09-27T03:22:37.148Z,16.38
2023-09-27T03:25:03.696Z,16.38
2023-09-27T03:27:30.247Z,16.40
2023-09-27T03:29:56.988Z,16.39
2023-09-27T03:32:23.460Z,16.36
2023-09-27T03:34:51.822Z,16.32
2023-09-27T03:37:18.282Z,16.30
2023-09-27T03:39:45.111Z,16.32
2023-09-27T03:42:12.264Z,16.35
2023-09-27T03:44:39.698Z,16.32
2023-09-27T03:47:06.245Z,16.25
2023-09-27T03:49:32.771Z,16.15
2023-09-27T03:51:59.207Z,16.04
2023-09-27T03:54:25.766Z,15.96
2023-09-27T03:56:53.182Z,15.94
2023-09-27T03:59:20.088Z,15.87
2023-09-27T04:01:47.469Z,15.89
2023-09-27T04:04:13.994Z,15.76
2023-09-27T04:06:40.500Z,15.79
2023-09-27T04:09:07.955Z,15.76
2023-09-27T04:11:34.560Z,15.73
2023-09-27T04:14:01.101Z,15.71
2023-09-27T04:16:31.681Z,15.63
2023-09-27T04:18:59.680Z,15.65
2023-09-27T04:21:26.607Z,15.62
2023-09-27T04:23:57.402Z,15.62
2023-09-27T04:26:27.663Z,15.59
2023-09-27T04:28:54.878Z,15.58
2023-09-27T04:31:21.911Z,15.57
2023-09-27T04:33:48.664Z,15.52
2023-09-27T04:36:18.303Z,15.50
2023-09-27T04:38:46.328Z,15.50
2023-09-27T04:41:17.016Z,15.39
2023-09-27T04:43:44.251Z,15.46
2023-09-27T04:46:18.469Z,15.36
2023-09-27T04:48:45.898Z,15.38
2023-09-27T04:51:12.507Z,15.38
2023-09-27T04:53:39.379Z,15.38
2023-09-27T04:56:11.597Z,15.36
2023-09-27T04:58:39.999Z,15.35
2023-09-27T05:01:07.284Z,15.34
2023-09-27T05:03:34.453Z,15.34
2023-09-27T05:06:01.064Z,15.33
2023-09-27T05:08:27.662Z,15.32
2023-09-27T05:10:54.334Z,15.23
2023-09-27T05:13:22.757Z,15.29
2023-09-27T05:15:49.842Z,15.22
2023-09-27T05:18:16.675Z,15.24
2023-09-27T05:20:45.123Z,15.23
2023-09-27T05:23:14.730Z,15.22
2023-09-27T05:25:42.309Z,15.21
2023-09-27T05:28:08.785Z,15.12
2023-09-27T05:30:35.263Z,15.18
2023-09-27T05:33:02.426Z,15.10
2023-09-27T05:35:28.965Z,15.11
2023-09-27T05:37:55.520Z,15.08
2023-09-27T05:40:21.971Z,15.09
2023-09-27T05:42:48.586Z,15.15
2023-09-27T05:45:15.165Z,15.17
2023-09-27T05:47:42.215Z,15.54
2023-09-27T05:50:10.124Z,15.87
2023-09-27T05:52:36.813Z,16.09
2023-09-27T05:55:06.831Z,16.16
2023-09-27T05:57:33.978Z,16.38
2023-09-27T06:00:01.809Z,16.54
2023-09-27T06:02:32.650Z,16.69
2023-09-27T06:05:00.313Z,16.84
2023-09-27T06:07:27.227Z,16.89
2023-09-27T06:09:53.676Z,16.99
2023-09-27T06:12:20.165Z,17.08
2023-09-27T06:14:47.837Z,17.16
2023-09-27T06:17:17.366Z,17.14
2023-09-27T06:19:45.415Z,17.16
2023-09-27T06:22:14.809Z,17.26
2023-09-27T06:24:42.100Z,17.21
2023-09-27T06:27:09.172Z,17.21
2023-09-27T06:29:35.864Z,17.15
2023-09-27T06:32:02.928Z,17.31
2023-09-27T06:34:29.511Z,17.35
2023-09-27T06:36:57.619Z,17.35
2023-09-27T06:39:27.045Z,17.38
2023-09-27T06:41:53.592Z,17.41
2023-09-27T06:44:20.289Z,17.37
2023-09-27T06:46:49.431Z,17.41
2023-09-27T06:49:18.048Z,17.41
2023-09-27T06:51:45.566Z,17.47
2023-09-27T06:54:12.168Z,17.49
2023-09-27T06:56:38.780Z,17.52
2023-09-27T06:59:06.707Z,17.47
2023-09-27T07:01:33.485Z,17.60
2023-09-27T07:04:00.179Z,17.60
2023-09-27T07:06:26.686Z,17.57
2023-09-27T07:08:54.729Z,17.41
2023-09-27T07:11:24.819Z,17.24
2023-09-27T07:13:52.006Z,17.10
2023-09-27T07:16:28.955Z,16.99
2023-09-27T07:18:57.429Z,16.92
2023-09-27T07:21:25.882Z,16.83
2023-09-27T07:23:53.484Z,16.80
2023-09-27T07:26:20.478Z,16.76
2023-09-27T07:28:47.377Z,16.71
2023-09-27T07:31:18.291Z,16.73
2023-09-27T07:33:46.360Z,16.85
2023-09-27T07:36:13.178Z,16.95
2023-09-27T07:38:40.918Z,17.08
2023-09-27T07:41:09.943Z,17.14
2023-09-27T07:43:37.435Z,17.17
2023-09-27T07:46:07.877Z,17.11
2023-09-27T07:48:39.278Z,17.27
2023-09-27T07:51:12.938Z,17.33
2023-09-27T07:53:40.066Z,17.37
2023-09-27T07:56:10.588Z,17.47
2023-09-27T07:58:38.262Z,17.57
2023-09-27T08:01:05.964Z,17.61
2023-09-27T08:03:32.923Z,17.70
2023-09-27T08:05:59.804Z,17.79
2023-09-27T08:08:26.428Z,17.76
2023-09-27T08:10:54.000Z,17.92
2023-09-27T08:13:20.889Z,17.95
2023-09-27T08:15:50.314Z,18.02
2023-09-27T08:18:17.579Z,18.07
2023-09-27T08:20:44.811Z,18.07
2023-09-27T08:23:11.526Z,18.02
2023-09-27T08:25:39.185Z,18.20
2023-09-27T08:28:07.138Z,17.89
2023-09-27T08:30:33.763Z,18.36
2023-09-27T08:33:00.411Z,18.36
2023-09-27T08:35:27.231Z,18.47
2023-09-27T08:37:56.668Z,18.44
2023-09-27T08:40:23.200Z,18.50
2023-09-27T08:42:56.860Z,18.44
2023-09-27T08:45:23.951Z,18.53
2023-09-27T08:47:51.351Z,18.54
2023-09-27T08:50:19.750Z,18.58
2023-09-27T08:52:48.208Z,18.54
2023-09-27T08:55:16.251Z,18.63
2023-09-27T08:57:47.276Z,18.62
2023-09-27T09:00:21.206Z,18.70
2023-09-27T09:02:58.232Z,18.74
2023-09-27T09:05:29.185Z,18.73
2023-09-27T09:07:57.261Z,18.75
2023-09-27T09:10:24.126Z,18.75
2023-09-27T09:12:51.802Z,18.76
2023-09-27T09:15:42.365Z,18.77
2023-09-27T09:18:16.162Z,18.81
2023-09-27T09:20:50.587Z,18.82
2023-09-27T09:23:38.291Z,18.82
2023-09-27T09:26:07.568Z,18.86
2023-09-27T09:28:35.122Z,18.88
2023-09-27T09:31:02.172Z,18.91
2023-09-27T09:33:37.893Z,18.96
2023-09-27T09:36:04.991Z,19.03
2023-09-27T09:38:32.222Z,19.09
2023-09-27T09:41:01.408Z,19.15
2023-09-27T09:43:36.286Z,19.26
2023-09-27T09:46:07.660Z,19.31
2023-09-27T09:48:35.871Z,19.31
2023-09-27T09:51:05.033Z,19.41
2023-09-27T09:53:32.034Z,19.47
2023-09-27T09:56:27.404Z,19.51
2023-09-27T09:59:00.684Z,19.55
2023-09-27T10:01:33.177Z,19.54
2023-09-27T10:04:05.414Z,19.56
2023-09-27T10:06:47.182Z,19.54
2023-09-27T10:09:16.322Z,19.51
2023-09-27T10:11:46.925Z,19.56
2023-09-27T10:14:15.318Z,19.63
2023-09-27T10:16:41.912Z,19.62
2023-09-27T10:19:08.451Z,19.62
2023-09-27T10:21:35.694Z,19.66
2023-09-27T10:24:02.735Z,19.64
2023-09-27T10:26:29.966Z,19.79
2023-09-27T10:29:04.127Z,19.83
2023-09-27T10:31:33.157Z,19.82
2023-09-27T10:34:00.549Z,19.86
2023-09-27T10:36:28.976Z,19.91
2023-09-27T10:38:55.442Z,19.91
2023-09-27T10:41:34.629Z,19.88
2023-09-27T10:44:03.225Z,19.87
2023-09-27T10:46:50.063Z,19.85
2023-09-27T10:49:24.123Z,19.82
2023-09-27T10:51:53.592Z,19.82
2023-09-27T10:54:28.811Z,19.85
2023-09-27T10:56:57.457Z,19.87
2023-09-27T10:59:28.037Z,19.88
2023-09-27T11:01:56.060Z,19.88
2023-09-27T11:04:26.883Z,19.95
2023-09-27T11:06:54.654Z,20.01
2023-09-27T11:09:21.164Z,20.02
2023-09-27T11:11:48.931Z,20.15
2023-09-27T11:14:33.169Z,20.22
2023-09-27T11:17:26.746Z,20.34
2023-09-27T11:19:54.100Z,20.23
2023-09-27T11:22:30.382Z,20.50
2023-09-27T11:24:57.189Z,20.60
2023-09-27T11:27:23.745Z,20.60
2023-09-27T11:29:54.393Z,20.76
2023-09-27T11:32:21.673Z,20.84
2023-09-27T11:34:58.469Z,20.90
2023-09-27T11:37:26.104Z,21.03
2023-09-27T11:39:55.744Z,21.12
2023-09-27T11:42:26.854Z,21.12
2023-09-27T11:45:09.153Z,21.23
2023-09-27T11:47:53.755Z,21.36
2023-09-27T11:50:22.299Z,21.42
2023-09-27T11:52:49.192Z,21.48
2023-09-27T11:55:16.364Z,21.54
2023-09-27T11:57:43.342Z,21.59
2023-09-27T12:00:14.559Z,21.66
2023-09-27T12:02:56.387Z,21.70
2023-09-27T12:05:24.281Z,21.68
2023-09-27T12:07:51.550Z,21.72
2023-09-27T12:10:18.309Z,21.76
2023-09-27T12:12:44.752Z,21.75
2023-09-27T12:15:11.664Z,21.79
2023-09-27T12:17:39.008Z,21.88
2023-09-27T12:20:09.189Z,21.85
2023-09-27T12:22:40.294Z,22.02
2023-09-27T12:25:07.846Z,21.96
2023-09-27T12:27:35.031Z,22.13
2023-09-27T12:30:01.899Z,22.15
2023-09-27T12:32:28.438Z,22.22
2023-09-27T12:34:55.025Z,22.31
2023-09-27T12:37:23.021Z,22.40
2023-09-27T12:39:49.688Z,22.48
2023-09-27T12:42:16.169Z,22.57
2023-09-27T12:44:42.708Z,22.67
2023-09-27T12:47:09.200Z,22.67
2023-09-27T12:49:36.783Z,22.77
2023-09-27T12:52:03.455Z,22.83
2023-09-27T12:54:29.917Z,22.88
2023-09-27T12:56:58.970Z,22.90
2023-09-27T12:59:27.757Z,22.83
2023-09-27T13:01:55.079Z,22.84
2023-09-27T13:04:22.827Z,22.87
2023-09-27T13:06:49.636Z,22.87
2023-09-27T13:09:18.452Z,22.83
2023-09-27T13:11:45.256Z,22.76
2023-09-27T13:14:11.938Z,22.88
2023-09-27T13:16:38.423Z,22.86
2023-09-27T13:19:04.992Z,22.90
2023-09-27T13:21:31.433Z,22.92
2023-09-27T13:23:57.886Z,22.82
2023-09-27T13:26:24.931Z,22.98
2023-09-27T13:28:52.237Z,22.99
2023-09-27T13:31:18.899Z,22.93
2023-09-27T13:33:49.093Z,22.92
2023-09-27T13:36:25.882Z,22.93
2023-09-27T13:38:53.597Z,22.90
2023-09-27T13:41:21.000Z,22.95
2023-09-27T13:43:48.706Z,22.95
2023-09-27T13:46:15.335Z,22.93
2023-09-27T13:48:41.820Z,22.94
2023-09-27T13:51:08.323Z,22.99
2023-09-27T13:53:34.817Z,22.99
2023-09-27T13:56:03.173Z,23.07
2023-09-27T13:58:29.656Z,23.09
2023-09-27T14:00:56.140Z,23.11
2023-09-27T14:03:22.708Z,23.16
2023-09-27T14:05:49.414Z,23.16
2023-09-27T14:08:15.961Z,23.19
2023-09-27T14:10:42.399Z,23.19
2023-09-27T14:13:09.011Z,23.18
2023-09-27T14:15:35.802Z,23.21
2023-09-27T14:18:02.485Z,23.21
2023-09-27T14:20:29.034Z,23.21
2023-09-27T14:22:57.259Z,23.20
2023-09-27T14:25:24.148Z,23.19
2023-09-27T14:27:51.498Z,23.18
2023-09-27T14:30:18.088Z,23.22
2023-09-27T14:32:45.034Z,23.16
2023-09-27T14:35:13.701Z,23.24
2023-09-27T14:37:40.977Z,23.17
2023-09-27T14:40:10.846Z,23.17
2023-09-27T14:42:38.910Z,23.15
2023-09-27T14:45:13.497Z,23.10
2023-09-27T14:47:43.637Z,23.06
2023-09-27T14:50:10.831Z,23.03
2023-09-27T14:52:37.365Z,22.98
2023-09-27T14:55:04.309Z,22.92
2023-09-27T14:57:30.867Z,22.71
2023-09-27T14:59:57.369Z,22.84
2023-09-27T15:02:23.905Z,22.80
2023-09-27T15:04:50.446Z,22.77
2023-09-27T15:07:18.082Z,22.72
2023-09-27T15:09:44.816Z,22.68
2023-09-27T15:12:11.285Z,22.66
2023-09-27T15:14:37.884Z,22.58
2023-09-27T15:17:04.412Z,22.57
2023-09-27T15:19:30.940Z,22.54
2023-09-27T15:21:57.510Z,22.49
2023-09-27T15:24:24.084Z,22.45
2023-09-27T15:26:50.538Z,22.22
2023-09-27T15:29:17.010Z,22.39
2023-09-27T15:31:44.605Z,22.33
2023-09-27T15:34:11.151Z,22.28
2023-09-27T15:36:38.120Z,22.30
2023-09-27T15:39:04.578Z,22.26
2023-09-27T15:41:31.127Z,22.25
2023-09-27T15:43:57.624Z,22.24
2023-09-27T15:46:24.732Z,22.22
2023-09-27T15:48:51.310Z,22.20
2023-09-27T15:51:17.790Z,22.18
2023-09-27T15:53:44.270Z,22.17
2023-09-27T15:56:11.815Z,22.15
2023-09-27T15:58:39.183Z,22.14
2023-09-27T16:01:07.580Z,22.15
2023-09-27T16:03:34.117Z,22.11
2023-09-27T16:06:01.951Z,22.13
2023-09-27T16:08:28.659Z,22.13
2023-09-27T16:10:55.951Z,22.14
2023-09-27T16:13:23.643Z,22.14
2023-09-27T16:15:52.529Z,22.12
2023-09-27T16:18:20.722Z,22.12
2023-09-27T16:20:48.101Z,22.10
2023-09-27T16:23:15.509Z,22.09
2023-09-27T16:25:43.597Z,22.08
2023-09-27T16:28:10.781Z,22.08
2023-09-27T16:30:40.200Z,22.02
2023-09-27T16:33:06.860Z,22.05
2023-09-27T16:35:36.946Z,22.02
2023-09-27T16:38:04.070Z,21.82
2023-09-27T16:40:30.705Z,21.94
2023-09-27T16:42:58.964Z,21.92
2023-09-27T16:45:25.493Z,21.82
2023-09-27T16:47:52.173Z,21.86
2023-09-27T16:50:18.682Z,21.85
2023-09-27T16:52:45.302Z,21.81
2023-09-27T16:55:12.257Z,21.77
2023-09-27T16:57:39.799Z,21.73
2023-09-27T17:00:11.424Z,21.69
2023-09-27T17:02:45.843Z,21.69
2023-09-27T17:05:12.367Z,21.68
2023-09-27T17:07:38.964Z,21.64
2023-09-27T17:10:08.930Z,21.56
2023-09-27T17:12:36.966Z,21.63
2023-09-27T17:15:05.219Z,21.62
2023-09-27T17:17:32.849Z,21.56
2023-09-27T17:19:59.376Z,21.38
2023-09-27T17:22:27.631Z,21.55
2023-09-27T17:24:54.141Z,21.47
2023-09-27T17:27:22.442Z,21.51
2023-09-27T17:29:48.908Z,21.40
2023-09-27T17:32:15.385Z,21.47
2023-09-27T17:34:41.976Z,21.42
2023-09-27T17:37:08.811Z,21.46
2023-09-27T17:39:36.375Z,21.45
2023-09-27T17:42:03.057Z,21.48
2023-09-27T17:44:31.664Z,21.46
2023-09-27T17:46:58.912Z,21.47
2023-09-27T17:49:29.387Z,21.39
2023-09-27T17:51:55.935Z,21.44
2023-09-27T17:54:23.259Z,21.41
2023-09-27T17:56:51.590Z,21.21
2023-09-27T17:59:19.845Z,21.21
2023-09-27T18:01:47.723Z,21.34
2023-09-27T18:04:14.429Z,21.34
2023-09-27T18:06:40.966Z,21.34
2023-09-27T18:09:07.420Z,21.29
2023-09-27T18:11:33.923Z,21.33
2023-09-27T18:14:00.437Z,21.32
2023-09-27T18:16:27.371Z,21.31
2023-09-27T18:18:55.371Z,21.32
2023-09-27T18:21:22.109Z,21.26
2023-09-27T18:23:51.872Z,21.28
2023-09-27T18:26:18.779Z,21.28
2023-09-27T18:28:45.389Z,21.25
2023-09-27T18:31:12.433Z,21.26
2023-09-27T18:33:39.203Z,21.24
2023-09-27T18:36:05.840Z,21.22
2023-09-27T18:38:33.176Z,21.26
2023-09-27T18:40:59.737Z,21.24
2023-09-27T18:43:26.425Z,21.26
2023-09-27T18:45:53.093Z,21.25
2023-09-27T18:48:20.081Z,21.26
2023-09-27T18:50:48.709Z,21.24
2023-09-27T18:53:15.253Z,21.24
2023-09-27T18:55:42.028Z,21.21
2023-09-27T18:58:11.478Z,21.24
2023-09-27T19:00:37.999Z,21.22
2023-09-27T19:03:05.237Z,21.19
2023-09-27T19:05:31.795Z,21.15
2023-09-27T19:07:58.599Z,21.15
2023-09-27T19:10:25.651Z,21.15
2023-09-27T19:12:52.274Z,21.11
2023-09-27T19:15:18.746Z,21.15
2023-09-27T19:17:45.391Z,20.89
2023-09-27T19:20:13.653Z,21.15
2023-09-27T19:22:40.143Z,21.14
2023-09-27T19:25:07.100Z,21.06
2023-09-27T19:27:34.379Z,21.14
2023-09-27T19:30:00.846Z,21.14
2023-09-27T19:32:27.651Z,21.13
2023-09-27T19:34:54.199Z,21.12
2023-09-27T19:37:21.985Z,21.06
2023-09-27T19:39:50.940Z,21.11
2023-09-27T19:42:18.616Z,21.07
2023-09-27T19:44:45.053Z,21.04
2023-09-27T19:47:11.545Z,21.07
2023-09-27T19:49:38.836Z,21.06
2023-09-27T19:52:05.460Z,21.09
2023-09-27T19:54:31.955Z,21.07
2023-09-27T19:56:58.376Z,21.04
2023-09-27T19:59:26.644Z,21.04
2023-09-27T20:01:54.681Z,21.03
2023-09-27T20:04:21.441Z,20.99
2023-09-27T20:06:47.997Z,20.79
2023-09-27T20:09:14.438Z,20.98
2023-09-27T20:11:40.948Z,21.00
2023-09-27T20:14:07.485Z,20.99
2023-09-27T20:16:34.234Z,21.00
2023-09-27T20:19:01.255Z,20.98
2023-09-27T20:21:27.776Z,20.96
2023-09-27T20:23:54.425Z,20.97
2023-09-27T20:26:21.068Z,20.94
2023-09-27T20:28:48.266Z,20.94
2023-09-27T20:31:16.034Z,20.89
2023-09-27T20:33:42.630Z,20.89
2023-09-27T20:36:13.454Z,20.89
2023-09-27T20:38:40.850Z,20.95
2023-09-27T20:41:09.674Z,20.94
2023-09-27T20:43:36.305Z,20.93
2023-09-27T20:46:02.877Z,20.92
2023-09-27T20:48:29.471Z,20.90
2023-09-27T20:50:58.395Z,20.93
2023-09-27T20:53:25.591Z,20.92
2023-09-27T20:55:54.024Z,20.90
2023-09-27T20:58:20.814Z,20.94
2023-09-27T21:00:47.298Z,20.97
2023-09-27T21:03:13.901Z,20.97
2023-09-27T21:05:40.927Z,20.99
2023-09-27T21:08:07.396Z,20.95
2023-09-27T21:10:34.265Z,21.01
2023-09-27T21:13:00.901Z,21.02
2023-09-27T21:15:27.399Z,20.95
2023-09-27T21:17:54.120Z,21.05
2023-09-27T21:20:20.782Z,21.01
2023-09-27T21:22:49.239Z,21.05
2023-09-27T21:25:17.313Z,21.03
2023-09-27T21:27:43.884Z,21.04
2023-09-27T21:30:10.593Z,21.00
2023-09-27T21:32:37.247Z,21.04
2023-09-27T21:35:04.469Z,21.05
2023-09-27T21:37:31.100Z,20.99
2023-09-27T21:39:57.616Z,21.03
2023-09-27T21:42:24.148Z,21.03
2023-09-27T21:44:50.574Z,20.97
2023-09-27T21:47:17.105Z,20.99
2023-09-27T21:49:43.595Z,20.95
2023-09-27T21:52:10.069Z,20.88
2023-09-27T21:54:36.509Z,20.86
2023-09-27T21:57:03.079Z,20.85
2023-09-27T21:59:29.546Z,20.85
2023-09-27T22:01:56.271Z,20.80
2023-09-27T22:04:22.723Z,20.80
2023-09-27T22:06:49.204Z,20.81
2023-09-27T22:09:15.669Z,20.81
2023-09-27T22:11:42.230Z,20.76
2023-09-27T22:14:08.864Z,20.78
2023-09-27T22:16:35.517Z,20.75
2023-09-27T22:19:02.331Z,20.74
2023-09-27T22:21:30.755Z,20.72
2023-09-27T22:23:59.623Z,20.70
2023-09-27T22:26:26.475Z,20.67
2023-09-27T22:28:56.878Z,20.59
2023-09-27T22:31:32.458Z,20.63
2023-09-27T22:34:11.528Z,20.58
2023-09-27T22:36:48.434Z,20.59
2023-09-27T22:39:17.819Z,20.59
2023-09-27T22:41:46.701Z,20.56
2023-09-27T22:44:23.586Z,20.56
2023-09-27T22:46:52.638Z,20.51
2023-09-27T22:49:21.707Z,20.51
2023-09-27T22:51:48.616Z,20.50
2023-09-27T22:54:16.083Z,20.47
2023-09-27T22:56:46.794Z,20.48
2023-09-27T22:59:13.978Z,20.46
2023-09-27T23:01:43.808Z,20.44
2023-09-27T23:04:16.008Z,20.42
2023-09-27T23:07:01.294Z,20.32
2023-09-27T23:09:34.841Z,20.39
2023-09-27T23:12:22.104Z,20.38
2023-09-27T23:15:07.258Z,20.36
2023-09-27T23:17:56.389Z,20.35
2023-09-27T23:20:30.815Z,20.28
2023-09-27T23:22:59.127Z,20.33
2023-09-27T23:25:44.075Z,20.29
2023-09-27T23:28:17.453Z,20.29
2023-09-27T23:30:51.433Z,20.26
2023-09-27T23:33:18.335Z,20.18
2023-09-27T23:35:45.105Z,20.23
2023-09-27T23:38:31.731Z,20.16
2023-09-27T23:41:02.098Z,20.15
2023-09-27T23:43:41.148Z,20.15
2023-09-27T23:46:15.044Z,20.14
2023-09-27T23:48:42.930Z,20.11
2023-09-27T23:51:09.545Z,20.10
2023-09-27T23:53:37.171Z,20.10
2023-09-27T23:56:07.871Z,20.07
2023-09-27T23:58:35.453Z,20.05
